sensor_id;sensor_type;location;lat;lon;timestamp;temperature;humidity
52187;DHT22;38161;53.020;6.598;2024-01-25T00:01:50;7.00;99.90
52187;DHT22;38161;53.020;6.598;2024-01-25T00:04:15;7.00;99.90
52187;DHT22;38161;53.020;6.598;2024-01-25T00:06:41;7.00;99.90
52187;DHT22;38161;53.020;6.598;2024-01-25T00:09:07;7.00;99.90
52187;DHT22;38161;53.020;6.598;2024-01-25T00:11:33;7.00;99.90
52187;DHT22;38161;53.020;6.598;2024-01-25T00:14:00;7.00;99.90
52187;DHT22;38161;53.020;6.598;2024-01-25T00:16:27;6.90;99.90
52187;DHT22;38161;53.020;6.598;2024-01-25T00:18:53;7.00;99.90
52187;DHT22;38161;53.020;6.598;2024-01-25T00:21:19;6.90;99.90
52187;DHT22;38161;53.020;6.598;2024-01-25T00:23:44;6.90;99.90
52187;DHT22;38161;53.020;6.598;2024-01-25T00:26:10;6.90;99.90
52187;DHT22;38161;53.020;6.598;2024-01-25T00:28:36;6.90;99.90
52187;DHT22;38161;53.020;6.598;2024-01-25T00:31:02;6.90;99.90
52187;DHT22;38161;53.020;6.598;2024-01-25T00:33:28;6.80;99.90
52187;DHT22;38161;53.020;6.598;2024-01-25T00:35:54;6.80;99.90
52187;DHT22;38161;53.020;6.598;2024-01-25T00:38:20;6.80;99.90
52187;DHT22;38161;53.020;6.598;2024-01-25T00:40:46;6.70;99.90
52187;DHT22;38161;53.020;6.598;2024-01-25T00:43:12;6.70;99.90
52187;DHT22;38161;53.020;6.598;2024-01-25T00:45:38;6.70;99.90
52187;DHT22;38161;53.020;6.598;2024-01-25T00:48:04;6.70;99.90
52187;DHT22;38161;53.020;6.598;2024-01-25T00:50:30;6.60;99.90
52187;DHT22;38161;53.020;6.598;2024-01-25T00:52:56;6.60;99.90
52187;DHT22;38161;53.020;6.598;2024-01-25T00:55:22;6.60;99.90
52187;DHT22;38161;53.020;6.598;2024-01-25T00:57:51;6.60;99.90
52187;DHT22;38161;53.020;6.598;2024-01-25T01:00:17;6.50;99.90
52187;DHT22;38161;53.020;6.598;2024-01-25T01:02:44;6.50;99.90
52187;DHT22;38161;53.020;6.598;2024-01-25T01:05:11;6.40;99.90
52187;DHT22;38161;53.020;6.598;2024-01-25T01:07:37;6.40;99.90
52187;DHT22;38161;53.020;6.598;2024-01-25T01:10:03;6.30;99.90
52187;DHT22;38161;53.020;6.598;2024-01-25T01:12:30;6.30;99.90
52187;DHT22;38161;53.020;6.598;2024-01-25T01:14:56;6.30;99.90
52187;DHT22;38161;53.020;6.598;2024-01-25T01:17:21;6.30;99.90
52187;DHT22;38161;53.020;6.598;2024-01-25T01:19:47;6.30;99.90
52187;DHT22;38161;53.020;6.598;2024-01-25T01:22:13;6.30;99.90
52187;DHT22;38161;53.020;6.598;2024-01-25T01:24:39;6.30;99.90
52187;DHT22;38161;53.020;6.598;2024-01-25T01:27:04;6.20;99.90
52187;DHT22;38161;53.020;6.598;2024-01-25T01:29:30;6.20;99.90
52187;DHT22;38161;53.020;6.598;2024-01-25T01:31:56;6.20;99.90
52187;DHT22;38161;53.020;6.598;2024-01-25T01:34:22;6.20;99.90
52187;DHT22;38161;53.020;6.598;2024-01-25T01:36:47;6.20;99.90
52187;DHT22;38161;53.020;6.598;2024-01-25T01:39:13;6.10;99.90
52187;DHT22;38161;53.020;6.598;2024-01-25T01:41:39;6.20;99.90
52187;DHT22;38161;53.020;6.598;2024-01-25T01:44:06;6.10;99.90
52187;DHT22;38161;53.020;6.598;2024-01-25T01:46:36;6.10;99.90
52187;DHT22;38161;53.020;6.598;2024-01-25T01:49:13;6.10;99.90
52187;DHT22;38161;53.020;6.598;2024-01-25T01:51:40;6.10;99.90
52187;DHT22;38161;53.020;6.598;2024-01-25T01:54:07;6.00;99.90
52187;DHT22;38161;53.020;6.598;2024-01-25T01:56:33;6.00;99.90
52187;DHT22;38161;53.020;6.598;2024-01-25T01:59:09;6.00;99.90
52187;DHT22;38161;53.020;6.598;2024-01-25T02:01:36;6.00;99.90
52187;DHT22;38161;53.020;6.598;2024-01-25T02:04:02;6.00;99.90
52187;DHT22;38161;53.020;6.598;2024-01-25T02:06:28;5.90;99.90
52187;DHT22;38161;53.020;6.598;2024-01-25T02:08:57;5.90;99.90
52187;DHT22;38161;53.020;6.598;2024-01-25T02:11:26;5.80;99.90
52187;DHT22;38161;53.020;6.598;2024-01-25T02:13:51;5.80;99.90
52187;DHT22;38161;53.020;6.598;2024-01-25T02:16:17;5.80;99.90
52187;DHT22;38161;53.020;6.598;2024-01-25T02:18:44;5.70;99.90
52187;DHT22;38161;53.020;6.598;2024-01-25T02:21:10;5.70;99.90
52187;DHT22;38161;53.020;6.598;2024-01-25T02:23:35;5.70;99.90
52187;DHT22;38161;53.020;6.598;2024-01-25T02:26:01;5.70;99.90
52187;DHT22;38161;53.020;6.598;2024-01-25T02:28:27;5.70;99.90
52187;DHT22;38161;53.020;6.598;2024-01-25T02:30:53;5.60;99.90
52187;DHT22;38161;53.020;6.598;2024-01-25T02:33:18;5.60;99.90
52187;DHT22;38161;53.020;6.598;2024-01-25T02:35:44;5.60;99.90
52187;DHT22;38161;53.020;6.598;2024-01-25T02:38:10;5.60;99.90
52187;DHT22;38161;53.020;6.598;2024-01-25T02:40:36;5.60;99.90
52187;DHT22;38161;53.020;6.598;2024-01-25T02:43:01;5.60;99.90
52187;DHT22;38161;53.020;6.598;2024-01-25T02:45:27;5.50;99.90
52187;DHT22;38161;53.020;6.598;2024-01-25T02:47:53;5.50;99.90
52187;DHT22;38161;53.020;6.598;2024-01-25T02:50:19;5.50;99.90
52187;DHT22;38161;53.020;6.598;2024-01-25T02:52:44;5.50;99.90
52187;DHT22;38161;53.020;6.598;2024-01-25T02:55:10;5.50;99.90
52187;DHT22;38161;53.020;6.598;2024-01-25T02:57:36;5.50;99.90
52187;DHT22;38161;53.020;6.598;2024-01-25T03:00:02;5.50;99.90
52187;DHT22;38161;53.020;6.598;2024-01-25T03:02:28;5.40;99.90
52187;DHT22;38161;53.020;6.598;2024-01-25T03:04:54;5.40;99.90
52187;DHT22;38161;53.020;6.598;2024-01-25T03:07:20;5.40;99.90
52187;DHT22;38161;53.020;6.598;2024-01-25T03:09:45;5.40;99.90
52187;DHT22;38161;53.020;6.598;2024-01-25T03:12:11;5.40;99.90
52187;DHT22;38161;53.020;6.598;2024-01-25T03:14:37;5.40;99.90
52187;DHT22;38161;53.020;6.598;2024-01-25T03:17:03;5.40;99.90
52187;DHT22;38161;53.020;6.598;2024-01-25T03:19:29;5.40;99.90
52187;DHT22;38161;53.020;6.598;2024-01-25T03:21:55;5.40;99.90
52187;DHT22;38161;53.020;6.598;2024-01-25T03:24:23;5.40;99.90
52187;DHT22;38161;53.020;6.598;2024-01-25T03:26:50;5.40;99.90
52187;DHT22;38161;53.020;6.598;2024-01-25T03:29:16;5.40;99.90
52187;DHT22;38161;53.020;6.598;2024-01-25T03:31:41;5.40;99.90
52187;DHT22;38161;53.020;6.598;2024-01-25T03:34:07;5.40;99.90
52187;DHT22;38161;53.020;6.598;2024-01-25T03:36:33;5.40;99.90
52187;DHT22;38161;53.020;6.598;2024-01-25T03:38:59;5.40;99.90
52187;DHT22;38161;53.020;6.598;2024-01-25T03:41:24;5.30;99.90
52187;DHT22;38161;53.020;6.598;2024-01-25T03:43:53;5.40;99.90
52187;DHT22;38161;53.020;6.598;2024-01-25T03:46:19;5.30;99.90
52187;DHT22;38161;53.020;6.598;2024-01-25T03:48:45;5.30;99.90
52187;DHT22;38161;53.020;6.598;2024-01-25T03:51:10;5.40;99.90
52187;DHT22;38161;53.020;6.598;2024-01-25T03:53:36;5.30;99.90
52187;DHT22;38161;53.020;6.598;2024-01-25T03:56:02;5.30;99.90
52187;DHT22;38161;53.020;6.598;2024-01-25T03:58:28;5.30;99.90
52187;DHT22;38161;53.020;6.598;2024-01-25T04:00:54;5.30;99.90
52187;DHT22;38161;53.020;6.598;2024-01-25T04:03:20;5.30;99.90
52187;DHT22;38161;53.020;6.598;2024-01-25T04:05:48;5.30;99.90
52187;DHT22;38161;53.020;6.598;2024-01-25T04:08:14;5.20;99.90
52187;DHT22;38161;53.020;6.598;2024-01-25T04:10:40;5.20;99.90
52187;DHT22;38161;53.020;6.598;2024-01-25T04:13:05;5.20;99.90
52187;DHT22;38161;53.020;6.598;2024-01-25T04:15:33;5.20;99.90
52187;DHT22;38161;53.020;6.598;2024-01-25T04:17:58;5.20;99.90
52187;DHT22;38161;53.020;6.598;2024-01-25T04:20:24;5.20;99.90
52187;DHT22;38161;53.020;6.598;2024-01-25T04:22:50;5.10;99.90
52187;DHT22;38161;53.020;6.598;2024-01-25T04:25:16;5.10;99.90
52187;DHT22;38161;53.020;6.598;2024-01-25T04:27:41;5.10;99.90
52187;DHT22;38161;53.020;6.598;2024-01-25T04:30:08;5.10;99.90
52187;DHT22;38161;53.020;6.598;2024-01-25T04:32:34;5.10;99.90
52187;DHT22;38161;53.020;6.598;2024-01-25T04:35:00;5.10;99.90
52187;DHT22;38161;53.020;6.598;2024-01-25T04:37:26;5.00;99.90
52187;DHT22;38161;53.020;6.598;2024-01-25T04:39:52;5.00;99.90
52187;DHT22;38161;53.020;6.598;2024-01-25T04:42:17;5.10;99.90
52187;DHT22;38161;53.020;6.598;2024-01-25T04:44:43;5.10;99.90
52187;DHT22;38161;53.020;6.598;2024-01-25T04:47:09;5.00;99.90
52187;DHT22;38161;53.020;6.598;2024-01-25T04:49:35;5.00;99.90
52187;DHT22;38161;53.020;6.598;2024-01-25T04:52:01;5.00;99.90
52187;DHT22;38161;53.020;6.598;2024-01-25T04:54:27;5.00;99.90
52187;DHT22;38161;53.020;6.598;2024-01-25T04:56:55;5.00;99.90
52187;DHT22;38161;53.020;6.598;2024-01-25T04:59:21;5.00;99.90
52187;DHT22;38161;53.020;6.598;2024-01-25T05:01:47;5.00;99.90
52187;DHT22;38161;53.020;6.598;2024-01-25T05:04:13;4.90;99.90
52187;DHT22;38161;53.020;6.598;2024-01-25T05:06:38;4.90;99.90
52187;DHT22;38161;53.020;6.598;2024-01-25T05:09:04;4.90;99.90
52187;DHT22;38161;53.020;6.598;2024-01-25T05:11:30;4.90;99.90
52187;DHT22;38161;53.020;6.598;2024-01-25T05:13:56;4.90;99.90
52187;DHT22;38161;53.020;6.598;2024-01-25T05:16:21;4.90;99.90
52187;DHT22;38161;53.020;6.598;2024-01-25T05:18:47;4.90;99.90
52187;DHT22;38161;53.020;6.598;2024-01-25T05:21:13;4.90;99.90
52187;DHT22;38161;53.020;6.598;2024-01-25T05:23:39;4.80;99.90
52187;DHT22;38161;53.020;6.598;2024-01-25T05:26:06;4.80;99.90
52187;DHT22;38161;53.020;6.598;2024-01-25T05:28:32;4.80;99.90
52187;DHT22;38161;53.020;6.598;2024-01-25T05:30:58;4.70;99.90
52187;DHT22;38161;53.020;6.598;2024-01-25T05:33:23;4.70;99.90
52187;DHT22;38161;53.020;6.598;2024-01-25T05:35:49;4.70;99.90
52187;DHT22;38161;53.020;6.598;2024-01-25T05:38:15;4.70;99.90
52187;DHT22;38161;53.020;6.598;2024-01-25T05:40:42;4.70;99.90
52187;DHT22;38161;53.020;6.598;2024-01-25T05:43:07;4.60;99.90
52187;DHT22;38161;53.020;6.598;2024-01-25T05:45:33;4.60;99.90
52187;DHT22;38161;53.020;6.598;2024-01-25T05:47:59;4.60;99.90
52187;DHT22;38161;53.020;6.598;2024-01-25T05:50:25;4.60;99.90
52187;DHT22;38161;53.020;6.598;2024-01-25T05:52:50;4.50;99.90
52187;DHT22;38161;53.020;6.598;2024-01-25T05:55:16;4.50;99.90
52187;DHT22;38161;53.020;6.598;2024-01-25T05:57:43;4.50;99.90
52187;DHT22;38161;53.020;6.598;2024-01-25T06:00:11;4.50;99.90
52187;DHT22;38161;53.020;6.598;2024-01-25T06:02:38;4.50;99.90
52187;DHT22;38161;53.020;6.598;2024-01-25T06:05:04;4.50;99.90
52187;DHT22;38161;53.020;6.598;2024-01-25T06:07:30;4.40;99.90
52187;DHT22;38161;53.020;6.598;2024-01-25T06:09:56;4.40;99.90
52187;DHT22;38161;53.020;6.598;2024-01-25T06:12:21;4.40;99.90
52187;DHT22;38161;53.020;6.598;2024-01-25T06:14:47;4.40;99.90
52187;DHT22;38161;53.020;6.598;2024-01-25T06:17:14;4.40;99.90
52187;DHT22;38161;53.020;6.598;2024-01-25T06:19:39;4.30;99.90
52187;DHT22;38161;53.020;6.598;2024-01-25T06:22:05;4.40;99.90
52187;DHT22;38161;53.020;6.598;2024-01-25T06:24:31;4.30;99.90
52187;DHT22;38161;53.020;6.598;2024-01-25T06:26:57;4.30;99.90
52187;DHT22;38161;53.020;6.598;2024-01-25T06:29:23;4.30;99.90
52187;DHT22;38161;53.020;6.598;2024-01-25T06:31:49;4.30;99.90
52187;DHT22;38161;53.020;6.598;2024-01-25T06:34:14;4.30;99.90
52187;DHT22;38161;53.020;6.598;2024-01-25T06:36:40;4.30;99.90
52187;DHT22;38161;53.020;6.598;2024-01-25T06:39:06;4.20;99.90
52187;DHT22;38161;53.020;6.598;2024-01-25T06:41:32;4.20;99.90
52187;DHT22;38161;53.020;6.598;2024-01-25T06:43:59;4.20;99.90
52187;DHT22;38161;53.020;6.598;2024-01-25T06:46:25;4.20;99.90
52187;DHT22;38161;53.020;6.598;2024-01-25T06:48:51;4.20;99.90
52187;DHT22;38161;53.020;6.598;2024-01-25T06:51:17;4.20;99.90
52187;DHT22;38161;53.020;6.598;2024-01-25T06:53:43;4.20;99.90
52187;DHT22;38161;53.020;6.598;2024-01-25T06:56:09;4.20;99.90
52187;DHT22;38161;53.020;6.598;2024-01-25T06:58:34;4.20;99.90
52187;DHT22;38161;53.020;6.598;2024-01-25T07:01:00;4.20;99.90
52187;DHT22;38161;53.020;6.598;2024-01-25T07:03:26;4.10;99.90
52187;DHT22;38161;53.020;6.598;2024-01-25T07:05:52;4.10;99.90
52187;DHT22;38161;53.020;6.598;2024-01-25T07:08:18;4.10;99.90
52187;DHT22;38161;53.020;6.598;2024-01-25T07:10:44;4.10;99.90
52187;DHT22;38161;53.020;6.598;2024-01-25T07:13:10;4.10;99.90
52187;DHT22;38161;53.020;6.598;2024-01-25T07:15:36;4.10;99.90
52187;DHT22;38161;53.020;6.598;2024-01-25T07:18:02;4.10;99.90
52187;DHT22;38161;53.020;6.598;2024-01-25T07:20:29;4.10;99.90
52187;DHT22;38161;53.020;6.598;2024-01-25T07:22:54;4.10;99.90
52187;DHT22;38161;53.020;6.598;2024-01-25T07:25:20;4.10;99.90
52187;DHT22;38161;53.020;6.598;2024-01-25T07:27:47;4.10;99.90
52187;DHT22;38161;53.020;6.598;2024-01-25T07:30:13;4.00;99.90
52187;DHT22;38161;53.020;6.598;2024-01-25T07:32:39;4.00;99.90
52187;DHT22;38161;53.020;6.598;2024-01-25T07:35:08;4.00;99.90
52187;DHT22;38161;53.020;6.598;2024-01-25T07:37:35;4.10;99.90
52187;DHT22;38161;53.020;6.598;2024-01-25T07:40:01;4.00;99.90
52187;DHT22;38161;53.020;6.598;2024-01-25T07:42:29;4.00;99.90
52187;DHT22;38161;53.020;6.598;2024-01-25T07:44:55;4.00;99.90
52187;DHT22;38161;53.020;6.598;2024-01-25T07:47:21;4.00;99.90
52187;DHT22;38161;53.020;6.598;2024-01-25T07:49:47;4.00;99.90
52187;DHT22;38161;53.020;6.598;2024-01-25T07:52:14;4.00;99.90
52187;DHT22;38161;53.020;6.598;2024-01-25T07:54:40;4.00;99.90
52187;DHT22;38161;53.020;6.598;2024-01-25T07:57:05;4.00;99.90
52187;DHT22;38161;53.020;6.598;2024-01-25T07:59:31;4.00;99.90
52187;DHT22;38161;53.020;6.598;2024-01-25T08:01:57;4.00;99.90
52187;DHT22;38161;53.020;6.598;2024-01-25T08:04:23;4.00;99.90
52187;DHT22;38161;53.020;6.598;2024-01-25T08:06:48;4.10;99.90
52187;DHT22;38161;53.020;6.598;2024-01-25T08:09:14;4.10;99.90
52187;DHT22;38161;53.020;6.598;2024-01-25T08:11:41;4.10;99.90
52187;DHT22;38161;53.020;6.598;2024-01-25T08:14:07;4.10;99.90
52187;DHT22;38161;53.020;6.598;2024-01-25T08:16:33;4.20;99.90
52187;DHT22;38161;53.020;6.598;2024-01-25T08:19:00;4.20;99.90
52187;DHT22;38161;53.020;6.598;2024-01-25T08:21:26;4.20;99.90
52187;DHT22;38161;53.020;6.598;2024-01-25T08:23:52;4.30;99.90
52187;DHT22;38161;53.020;6.598;2024-01-25T08:26:17;4.30;99.90
52187;DHT22;38161;53.020;6.598;2024-01-25T08:28:43;4.30;99.90
52187;DHT22;38161;53.020;6.598;2024-01-25T08:31:10;4.30;99.90
52187;DHT22;38161;53.020;6.598;2024-01-25T08:33:36;4.30;99.90
52187;DHT22;38161;53.020;6.598;2024-01-25T08:36:02;4.40;99.90
52187;DHT22;38161;53.020;6.598;2024-01-25T08:38:28;4.40;99.90
52187;DHT22;38161;53.020;6.598;2024-01-25T08:40:54;4.40;99.90
52187;DHT22;38161;53.020;6.598;2024-01-25T08:43:20;4.50;99.90
52187;DHT22;38161;53.020;6.598;2024-01-25T08:45:46;4.50;99.90
52187;DHT22;38161;53.020;6.598;2024-01-25T08:48:12;4.50;99.90
52187;DHT22;38161;53.020;6.598;2024-01-25T08:50:39;4.50;99.90
52187;DHT22;38161;53.020;6.598;2024-01-25T08:53:04;4.50;99.90
52187;DHT22;38161;53.020;6.598;2024-01-25T08:55:31;4.60;99.90
52187;DHT22;38161;53.020;6.598;2024-01-25T08:57:57;4.60;99.90
52187;DHT22;38161;53.020;6.598;2024-01-25T09:00:22;4.60;99.90
52187;DHT22;38161;53.020;6.598;2024-01-25T09:02:48;4.60;99.90
52187;DHT22;38161;53.020;6.598;2024-01-25T09:05:14;4.70;99.90
52187;DHT22;38161;53.020;6.598;2024-01-25T09:07:40;4.70;99.90
52187;DHT22;38161;53.020;6.598;2024-01-25T09:10:07;4.70;99.90
52187;DHT22;38161;53.020;6.598;2024-01-25T09:12:37;4.80;99.90
52187;DHT22;38161;53.020;6.598;2024-01-25T09:15:05;4.80;99.90
52187;DHT22;38161;53.020;6.598;2024-01-25T09:17:31;4.80;99.90
52187;DHT22;38161;53.020;6.598;2024-01-25T09:19:56;4.90;99.90
52187;DHT22;38161;53.020;6.598;2024-01-25T09:22:24;5.00;99.90
52187;DHT22;38161;53.020;6.598;2024-01-25T09:24:50;5.00;99.90
52187;DHT22;38161;53.020;6.598;2024-01-25T09:27:18;5.00;99.90
52187;DHT22;38161;53.020;6.598;2024-01-25T09:29:44;5.10;99.90
52187;DHT22;38161;53.020;6.598;2024-01-25T09:32:10;5.20;99.90
52187;DHT22;38161;53.020;6.598;2024-01-25T09:34:39;5.20;99.90
52187;DHT22;38161;53.020;6.598;2024-01-25T09:37:05;5.20;99.90
52187;DHT22;38161;53.020;6.598;2024-01-25T09:39:34;5.20;99.90
52187;DHT22;38161;53.020;6.598;2024-01-25T09:42:02;5.30;99.90
52187;DHT22;38161;53.020;6.598;2024-01-25T09:44:28;5.30;99.90
52187;DHT22;38161;53.020;6.598;2024-01-25T09:46:54;5.40;99.90
52187;DHT22;38161;53.020;6.598;2024-01-25T09:49:21;5.30;99.90
52187;DHT22;38161;53.020;6.598;2024-01-25T09:51:47;5.40;99.90
52187;DHT22;38161;53.020;6.598;2024-01-25T09:54:16;5.40;99.90
52187;DHT22;38161;53.020;6.598;2024-01-25T09:56:42;5.50;99.90
52187;DHT22;38161;53.020;6.598;2024-01-25T09:59:09;5.50;99.90
52187;DHT22;38161;53.020;6.598;2024-01-25T10:01:34;5.50;99.90
52187;DHT22;38161;53.020;6.598;2024-01-25T10:04:00;5.70;99.90
52187;DHT22;38161;53.020;6.598;2024-01-25T10:06:26;5.80;99.90
52187;DHT22;38161;53.020;6.598;2024-01-25T10:08:55;5.90;99.90
52187;DHT22;38161;53.020;6.598;2024-01-25T10:11:22;6.00;99.90
52187;DHT22;38161;53.020;6.598;2024-01-25T10:13:48;6.10;99.90
52187;DHT22;38161;53.020;6.598;2024-01-25T10:16:19;6.20;99.90
52187;DHT22;38161;53.020;6.598;2024-01-25T10:18:48;6.10;99.90
52187;DHT22;38161;53.020;6.598;2024-01-25T10:21:15;6.10;99.90
52187;DHT22;38161;53.020;6.598;2024-01-25T10:23:43;6.10;99.90
52187;DHT22;38161;53.020;6.598;2024-01-25T10:26:09;6.10;99.90
52187;DHT22;38161;53.020;6.598;2024-01-25T10:28:35;6.10;99.90
52187;DHT22;38161;53.020;6.598;2024-01-25T10:31:02;6.00;99.90
52187;DHT22;38161;53.020;6.598;2024-01-25T10:33:30;6.20;99.90
52187;DHT22;38161;53.020;6.598;2024-01-25T10:35:57;6.40;99.90
52187;DHT22;38161;53.020;6.598;2024-01-25T10:38:32;6.70;99.90
52187;DHT22;38161;53.020;6.598;2024-01-25T10:41:00;7.10;99.90
52187;DHT22;38161;53.020;6.598;2024-01-25T10:43:27;7.40;99.90
52187;DHT22;38161;53.020;6.598;2024-01-25T10:45:53;7.70;99.90
52187;DHT22;38161;53.020;6.598;2024-01-25T10:48:21;8.00;99.90
52187;DHT22;38161;53.020;6.598;2024-01-25T10:50:48;8.20;99.90
52187;DHT22;38161;53.020;6.598;2024-01-25T10:53:16;8.20;99.90
52187;DHT22;38161;53.020;6.598;2024-01-25T10:55:42;8.30;99.90
52187;DHT22;38161;53.020;6.598;2024-01-25T10:58:08;8.40;99.90
52187;DHT22;38161;53.020;6.598;2024-01-25T11:00:35;8.90;99.90
52187;DHT22;38161;53.020;6.598;2024-01-25T11:03:01;8.90;99.90
52187;DHT22;38161;53.020;6.598;2024-01-25T11:05:31;8.90;99.90
52187;DHT22;38161;53.020;6.598;2024-01-25T11:07:57;8.90;99.90
52187;DHT22;38161;53.020;6.598;2024-01-25T11:10:27;8.80;99.90
52187;DHT22;38161;53.020;6.598;2024-01-25T11:13:00;8.80;99.90
52187;DHT22;38161;53.020;6.598;2024-01-25T11:15:35;8.80;99.90
52187;DHT22;38161;53.020;6.598;2024-01-25T11:18:07;9.10;99.90
52187;DHT22;38161;53.020;6.598;2024-01-25T11:20:36;9.10;99.90
52187;DHT22;38161;53.020;6.598;2024-01-25T11:23:05;9.10;99.90
52187;DHT22;38161;53.020;6.598;2024-01-25T11:25:34;8.80;99.90
52187;DHT22;38161;53.020;6.598;2024-01-25T11:28:01;8.70;99.90
52187;DHT22;38161;53.020;6.598;2024-01-25T11:30:29;8.70;99.90
52187;DHT22;38161;53.020;6.598;2024-01-25T11:32:56;8.50;99.90
52187;DHT22;38161;53.020;6.598;2024-01-25T11:35:22;8.40;99.90
52187;DHT22;38161;53.020;6.598;2024-01-25T11:37:48;8.30;99.90
52187;DHT22;38161;53.020;6.598;2024-01-25T11:40:16;8.20;99.90
52187;DHT22;38161;53.020;6.598;2024-01-25T11:42:42;8.10;99.90
52187;DHT22;38161;53.020;6.598;2024-01-25T11:45:10;8.00;99.90
52187;DHT22;38161;53.020;6.598;2024-01-25T11:47:37;7.90;99.90
52187;DHT22;38161;53.020;6.598;2024-01-25T11:50:04;7.80;99.90
52187;DHT22;38161;53.020;6.598;2024-01-25T11:52:31;7.80;99.90
52187;DHT22;38161;53.020;6.598;2024-01-25T11:55:01;7.80;99.90
52187;DHT22;38161;53.020;6.598;2024-01-25T11:57:27;7.70;99.90
52187;DHT22;38161;53.020;6.598;2024-01-25T11:59:54;7.80;99.90
52187;DHT22;38161;53.020;6.598;2024-01-25T12:02:21;7.80;99.90
52187;DHT22;38161;53.020;6.598;2024-01-25T12:04:47;7.90;99.90
52187;DHT22;38161;53.020;6.598;2024-01-25T12:07:13;7.90;99.90
52187;DHT22;38161;53.020;6.598;2024-01-25T12:09:39;7.90;99.90
52187;DHT22;38161;53.020;6.598;2024-01-25T12:12:05;7.90;99.90
52187;DHT22;38161;53.020;6.598;2024-01-25T12:14:31;7.90;99.90
52187;DHT22;38161;53.020;6.598;2024-01-25T12:17:02;7.90;99.90
52187;DHT22;38161;53.020;6.598;2024-01-25T12:19:29;7.90;99.90
52187;DHT22;38161;53.020;6.598;2024-01-25T12:21:56;7.90;99.90
52187;DHT22;38161;53.020;6.598;2024-01-25T12:24:22;7.90;99.90
52187;DHT22;38161;53.020;6.598;2024-01-25T12:26:48;7.90;99.90
52187;DHT22;38161;53.020;6.598;2024-01-25T12:29:13;7.90;99.90
52187;DHT22;38161;53.020;6.598;2024-01-25T12:31:39;7.80;99.90
52187;DHT22;38161;53.020;6.598;2024-01-25T12:34:13;7.80;99.90
52187;DHT22;38161;53.020;6.598;2024-01-25T12:36:40;7.90;99.90
52187;DHT22;38161;53.020;6.598;2024-01-25T12:39:06;7.80;99.90
52187;DHT22;38161;53.020;6.598;2024-01-25T12:41:32;7.90;99.90
52187;DHT22;38161;53.020;6.598;2024-01-25T12:43:58;7.90;99.90
52187;DHT22;38161;53.020;6.598;2024-01-25T12:46:24;7.90;99.90
52187;DHT22;38161;53.020;6.598;2024-01-25T12:48:50;7.90;99.90
52187;DHT22;38161;53.020;6.598;2024-01-25T12:51:20;7.90;99.90
52187;DHT22;38161;53.020;6.598;2024-01-25T12:53:48;7.90;99.90
52187;DHT22;38161;53.020;6.598;2024-01-25T12:56:14;8.00;99.90
52187;DHT22;38161;53.020;6.598;2024-01-25T12:58:40;7.90;99.90
52187;DHT22;38161;53.020;6.598;2024-01-25T13:01:06;7.90;99.90
52187;DHT22;38161;53.020;6.598;2024-01-25T13:03:32;7.90;99.90
52187;DHT22;38161;53.020;6.598;2024-01-25T13:05:58;7.90;99.90
52187;DHT22;38161;53.020;6.598;2024-01-25T13:08:24;7.90;99.90
52187;DHT22;38161;53.020;6.598;2024-01-25T13:10:50;7.80;99.90
52187;DHT22;38161;53.020;6.598;2024-01-25T13:13:15;7.80;99.90
52187;DHT22;38161;53.020;6.598;2024-01-25T13:15:41;7.80;99.90
52187;DHT22;38161;53.020;6.598;2024-01-25T13:18:07;7.80;99.90
52187;DHT22;38161;53.020;6.598;2024-01-25T13:20:33;7.80;99.90
52187;DHT22;38161;53.020;6.598;2024-01-25T13:22:59;7.80;99.90
52187;DHT22;38161;53.020;6.598;2024-01-25T13:25:24;7.80;99.90
52187;DHT22;38161;53.020;6.598;2024-01-25T13:27:50;7.80;99.90
52187;DHT22;38161;53.020;6.598;2024-01-25T13:30:17;7.90;99.90
52187;DHT22;38161;53.020;6.598;2024-01-25T13:32:43;7.80;99.90
52187;DHT22;38161;53.020;6.598;2024-01-25T13:35:09;7.90;99.90
52187;DHT22;38161;53.020;6.598;2024-01-25T13:37:34;7.90;99.90
52187;DHT22;38161;53.020;6.598;2024-01-25T13:40:01;7.90;99.90
52187;DHT22;38161;53.020;6.598;2024-01-25T13:42:29;7.80;99.90
52187;DHT22;38161;53.020;6.598;2024-01-25T13:44:55;7.90;99.90
52187;DHT22;38161;53.020;6.598;2024-01-25T13:47:21;7.90;99.90
52187;DHT22;38161;53.020;6.598;2024-01-25T13:49:48;7.80;99.90
52187;DHT22;38161;53.020;6.598;2024-01-25T13:52:18;7.80;99.90
52187;DHT22;38161;53.020;6.598;2024-01-25T13:54:46;7.70;99.90
52187;DHT22;38161;53.020;6.598;2024-01-25T13:57:12;7.70;99.90
52187;DHT22;38161;53.020;6.598;2024-01-25T13:59:39;7.70;99.90
52187;DHT22;38161;53.020;6.598;2024-01-25T14:02:05;7.70;99.90
52187;DHT22;38161;53.020;6.598;2024-01-25T14:04:31;7.70;99.90
52187;DHT22;38161;53.020;6.598;2024-01-25T14:06:57;7.70;99.90
52187;DHT22;38161;53.020;6.598;2024-01-25T14:09:22;7.70;99.90
52187;DHT22;38161;53.020;6.598;2024-01-25T14:11:48;7.70;99.90
52187;DHT22;38161;53.020;6.598;2024-01-25T14:14:14;7.70;99.90
52187;DHT22;38161;53.020;6.598;2024-01-25T14:16:40;7.70;99.90
52187;DHT22;38161;53.020;6.598;2024-01-25T14:19:06;7.70;99.90
52187;DHT22;38161;53.020;6.598;2024-01-25T14:21:32;7.70;99.90
52187;DHT22;38161;53.020;6.598;2024-01-25T14:23:58;7.80;99.90
52187;DHT22;38161;53.020;6.598;2024-01-25T14:26:24;7.70;99.90
52187;DHT22;38161;53.020;6.598;2024-01-25T14:28:50;7.70;99.90
52187;DHT22;38161;53.020;6.598;2024-01-25T14:31:15;7.70;99.90
52187;DHT22;38161;53.020;6.598;2024-01-25T14:33:41;7.70;99.90
52187;DHT22;38161;53.020;6.598;2024-01-25T14:36:07;7.60;99.90
52187;DHT22;38161;53.020;6.598;2024-01-25T14:38:33;7.60;99.90
52187;DHT22;38161;53.020;6.598;2024-01-25T14:40:59;7.60;99.90
52187;DHT22;38161;53.020;6.598;2024-01-25T14:43:25;7.60;99.90
52187;DHT22;38161;53.020;6.598;2024-01-25T14:45:51;7.50;99.90
52187;DHT22;38161;53.020;6.598;2024-01-25T14:48:18;7.50;99.90
52187;DHT22;38161;53.020;6.598;2024-01-25T14:50:44;7.50;99.90
52187;DHT22;38161;53.020;6.598;2024-01-25T14:53:10;7.50;99.90
52187;DHT22;38161;53.020;6.598;2024-01-25T14:55:37;7.50;99.90
52187;DHT22;38161;53.020;6.598;2024-01-25T14:58:02;7.40;99.90
52187;DHT22;38161;53.020;6.598;2024-01-25T15:00:28;7.40;99.90
52187;DHT22;38161;53.020;6.598;2024-01-25T15:02:54;7.40;99.90
52187;DHT22;38161;53.020;6.598;2024-01-25T15:05:22;7.40;99.90
52187;DHT22;38161;53.020;6.598;2024-01-25T15:07:48;7.40;99.90
52187;DHT22;38161;53.020;6.598;2024-01-25T15:10:14;7.30;99.90
52187;DHT22;38161;53.020;6.598;2024-01-25T15:12:39;7.40;99.90
52187;DHT22;38161;53.020;6.598;2024-01-25T15:15:07;7.30;99.90
52187;DHT22;38161;53.020;6.598;2024-01-25T15:17:33;7.30;99.90
52187;DHT22;38161;53.020;6.598;2024-01-25T15:19:59;7.30;99.90
52187;DHT22;38161;53.020;6.598;2024-01-25T15:22:25;7.30;99.90
52187;DHT22;38161;53.020;6.598;2024-01-25T15:24:52;7.20;99.90
52187;DHT22;38161;53.020;6.598;2024-01-25T15:27:18;7.20;99.90
52187;DHT22;38161;53.020;6.598;2024-01-25T15:29:44;7.20;99.90
52187;DHT22;38161;53.020;6.598;2024-01-25T15:32:09;7.10;99.90
52187;DHT22;38161;53.020;6.598;2024-01-25T15:34:35;7.10;99.90
52187;DHT22;38161;53.020;6.598;2024-01-25T15:37:01;7.00;99.90
52187;DHT22;38161;53.020;6.598;2024-01-25T15:39:27;6.90;99.90